sensor_id;sensor_type;location;lat;lon;timestamp;P1;durP1;ratioP1;P2;durP2;ratioP2
52184;SDS011;38160;52.876;18.778;2023-03-03T00:01:20;110.10;;;42.90;;
52184;SDS011;38160;52.876;18.778;2023-03-03T00:03:57;103.90;;;39.20;;
52184;SDS011;38160;52.876;18.778;2023-03-03T00:06:34;95.00;;;38.50;;
52184;SDS011;38160;52.876;18.778;2023-03-03T00:09:10;80.50;;;37.30;;
52184;SDS011;38160;52.876;18.778;2023-03-03T00:11:46;72.20;;;33.10;;
52184;SDS011;38160;52.876;18.778;2023-03-03T00:14:32;68.60;;;33.60;;
52184;SDS011;38160;52.876;18.778;2023-03-03T00:17:21;81.60;;;35.80;;
52184;SDS011;38160;52.876;18.778;2023-03-03T00:20:01;94.50;;;33.30;;
52184;SDS011;38160;52.876;18.778;2023-03-03T00:23:18;100.10;;;36.50;;
52184;SDS011;38160;52.876;18.778;2023-03-03T00:25:58;100.40;;;39.00;;
52184;SDS011;38160;52.876;18.778;2023-03-03T00:28:40;97.70;;;39.30;;
52184;SDS011;38160;52.876;18.778;2023-03-03T00:31:20;93.20;;;35.10;;
52184;SDS011;38160;52.876;18.778;2023-03-03T00:34:23;75.10;;;33.50;;
52184;SDS011;38160;52.876;18.778;2023-03-03T00:37:22;75.00;;;33.10;;
52184;SDS011;38160;52.876;18.778;2023-03-03T00:40:18;71.70;;;30.30;;
52184;SDS011;38160;52.876;18.778;2023-03-03T00:42:57;66.10;;;32.40;;
52184;SDS011;38160;52.876;18.778;2023-03-03T00:45:37;70.10;;;33.40;;
52184;SDS011;38160;52.876;18.778;2023-03-03T00:48:20;71.10;;;33.40;;
52184;SDS011;38160;52.876;18.778;2023-03-03T00:50:58;73.50;;;32.90;;
52184;SDS011;38160;52.876;18.778;2023-03-03T00:53:40;80.30;;;32.50;;
52184;SDS011;38160;52.876;18.778;2023-03-03T00:56:16;84.60;;;32.10;;
52184;SDS011;38160;52.876;18.778;2023-03-03T00:58:52;62.40;;;31.70;;
52184;SDS011;38160;52.876;18.778;2023-03-03T01:01:28;80.20;;;30.90;;
52184;SDS011;38160;52.876;18.778;2023-03-03T01:04:05;85.40;;;31.70;;
52184;SDS011;38160;52.876;18.778;2023-03-03T01:06:41;80.40;;;30.90;;
52184;SDS011;38160;52.876;18.778;2023-03-03T01:09:17;69.60;;;30.90;;
52184;SDS011;38160;52.876;18.778;2023-03-03T01:11:53;100.40;;;31.80;;
52184;SDS011;38160;52.876;18.778;2023-03-03T01:17:19;86.30;;;31.10;;
52184;SDS011;38160;52.876;18.778;2023-03-03T01:19:55;82.30;;;27.90;;
52184;SDS011;38160;52.876;18.778;2023-03-03T01:22:31;59.80;;;28.30;;
52184;SDS011;38160;52.876;18.778;2023-03-03T01:25:07;78.90;;;29.70;;
52184;SDS011;38160;52.876;18.778;2023-03-03T01:27:44;74.20;;;28.50;;
52184;SDS011;38160;52.876;18.778;2023-03-03T01:30:21;83.30;;;28.00;;
52184;SDS011;38160;52.876;18.778;2023-03-03T01:32:58;89.50;;;29.70;;
52184;SDS011;38160;52.876;18.778;2023-03-03T01:35:34;61.40;;;29.30;;
52184;SDS011;38160;52.876;18.778;2023-03-03T01:38:12;74.90;;;29.50;;
52184;SDS011;38160;52.876;18.778;2023-03-03T01:40:52;84.40;;;27.60;;
52184;SDS011;38160;52.876;18.778;2023-03-03T01:43:30;61.00;;;28.90;;
52184;SDS011;38160;52.876;18.778;2023-03-03T01:49:16;79.80;;;28.60;;
52184;SDS011;38160;52.876;18.778;2023-03-03T01:52:11;72.30;;;27.30;;
52184;SDS011;38160;52.876;18.778;2023-03-03T01:54:56;70.20;;;27.20;;
52184;SDS011;38160;52.876;18.778;2023-03-03T01:57:37;90.10;;;29.50;;
52184;SDS011;38160;52.876;18.778;2023-03-03T02:00:17;72.20;;;27.90;;
52184;SDS011;38160;52.876;18.778;2023-03-03T02:02:54;64.30;;;26.70;;
52184;SDS011;38160;52.876;18.778;2023-03-03T02:05:31;76.50;;;27.60;;
52184;SDS011;38160;52.876;18.778;2023-03-03T02:08:09;59.70;;;28.40;;
52184;SDS011;38160;52.876;18.778;2023-03-03T02:10:49;71.00;;;27.70;;
52184;SDS011;38160;52.876;18.778;2023-03-03T02:13:26;89.70;;;29.20;;
52184;SDS011;38160;52.876;18.778;2023-03-03T02:16:03;84.40;;;29.70;;
52184;SDS011;38160;52.876;18.778;2023-03-03T02:18:40;61.90;;;30.10;;
52184;SDS011;38160;52.876;18.778;2023-03-03T02:21:16;66.20;;;28.50;;
52184;SDS011;38160;52.876;18.778;2023-03-03T02:23:57;66.20;;;29.90;;
52184;SDS011;38160;52.876;18.778;2023-03-03T02:26:39;70.90;;;30.30;;
52184;SDS011;38160;52.876;18.778;2023-03-03T02:29:17;67.40;;;29.50;;
52184;SDS011;38160;52.876;18.778;2023-03-03T02:31:53;65.60;;;29.70;;
52184;SDS011;38160;52.876;18.778;2023-03-03T02:34:29;66.20;;;28.50;;
52184;SDS011;38160;52.876;18.778;2023-03-03T02:37:17;76.60;;;29.40;;
52184;SDS011;38160;52.876;18.778;2023-03-03T02:39:54;66.20;;;29.00;;
52184;SDS011;38160;52.876;18.778;2023-03-03T02:42:30;73.60;;;29.10;;
52184;SDS011;38160;52.876;18.778;2023-03-03T02:45:07;77.30;;;28.70;;
52184;SDS011;38160;52.876;18.778;2023-03-03T02:47:48;79.80;;;31.10;;
52184;SDS011;38160;52.876;18.778;2023-03-03T02:50:25;58.30;;;28.80;;
52184;SDS011;38160;52.876;18.778;2023-03-03T02:53:00;78.70;;;27.10;;
52184;SDS011;38160;52.876;18.778;2023-03-03T02:55:37;68.50;;;28.80;;
52184;SDS011;38160;52.876;18.778;2023-03-03T02:58:13;79.20;;;28.20;;
52184;SDS011;38160;52.876;18.778;2023-03-03T03:01:08;71.90;;;27.00;;
52184;SDS011;38160;52.876;18.778;2023-03-03T03:03:45;60.60;;;27.00;;
52184;SDS011;38160;52.876;18.778;2023-03-03T03:06:23;64.30;;;28.10;;
52184;SDS011;38160;52.876;18.778;2023-03-03T03:08:59;69.70;;;28.10;;
52184;SDS011;38160;52.876;18.778;2023-03-03T03:11:35;70.30;;;26.60;;
52184;SDS011;38160;52.876;18.778;2023-03-03T03:14:12;59.90;;;26.60;;
52184;SDS011;38160;52.876;18.778;2023-03-03T03:16:49;57.60;;;26.30;;
52184;SDS011;38160;52.876;18.778;2023-03-03T03:19:26;66.40;;;26.10;;
52184;SDS011;38160;52.876;18.778;2023-03-03T03:22:08;62.90;;;25.60;;
52184;SDS011;38160;52.876;18.778;2023-03-03T03:24:47;65.60;;;26.20;;
52184;SDS011;38160;52.876;18.778;2023-03-03T03:27:23;50.20;;;27.70;;
52184;SDS011;38160;52.876;18.778;2023-03-03T03:30:02;70.80;;;26.30;;
52184;SDS011;38160;52.876;18.778;2023-03-03T03:33:16;68.50;;;27.30;;
52184;SDS011;38160;52.876;18.778;2023-03-03T03:36:01;61.10;;;26.70;;
52184;SDS011;38160;52.876;18.778;2023-03-03T03:38:41;59.90;;;26.40;;
52184;SDS011;38160;52.876;18.778;2023-03-03T03:41:17;61.30;;;27.30;;
52184;SDS011;38160;52.876;18.778;2023-03-03T03:44:17;61.60;;;28.10;;
52184;SDS011;38160;52.876;18.778;2023-03-03T03:46:56;72.00;;;28.30;;
52184;SDS011;38160;52.876;18.778;2023-03-03T03:49:34;75.50;;;28.00;;
52184;SDS011;38160;52.876;18.778;2023-03-03T03:52:10;63.20;;;27.20;;
52184;SDS011;38160;52.876;18.778;2023-03-03T03:54:46;60.40;;;28.40;;
52184;SDS011;38160;52.876;18.778;2023-03-03T03:57:22;62.00;;;28.80;;
52184;SDS011;38160;52.876;18.778;2023-03-03T03:59:59;66.70;;;27.40;;
52184;SDS011;38160;52.876;18.778;2023-03-03T04:02:35;64.10;;;28.00;;
52184;SDS011;38160;52.876;18.778;2023-03-03T04:05:12;69.20;;;30.30;;
52184;SDS011;38160;52.876;18.778;2023-03-03T04:07:49;84.80;;;29.00;;
52184;SDS011;38160;52.876;18.778;2023-03-03T04:10:25;71.90;;;29.60;;
52184;SDS011;38160;52.876;18.778;2023-03-03T04:13:01;49.80;;;25.10;;
52184;SDS011;38160;52.876;18.778;2023-03-03T04:15:38;53.40;;;26.00;;
52184;SDS011;38160;52.876;18.778;2023-03-03T04:18:15;62.70;;;29.40;;
52184;SDS011;38160;52.876;18.778;2023-03-03T04:20:52;69.50;;;32.30;;
52184;SDS011;38160;52.876;18.778;2023-03-03T04:23:29;62.10;;;30.20;;
52184;SDS011;38160;52.876;18.778;2023-03-03T04:26:06;63.00;;;29.40;;
52184;SDS011;38160;52.876;18.778;2023-03-03T04:28:43;64.30;;;29.80;;
52184;SDS011;38160;52.876;18.778;2023-03-03T04:31:20;65.90;;;29.80;;
52184;SDS011;38160;52.876;18.778;2023-03-03T04:33:58;62.00;;;27.40;;
52184;SDS011;38160;52.876;18.778;2023-03-03T04:36:34;60.00;;;28.80;;
52184;SDS011;38160;52.876;18.778;2023-03-03T04:39:10;64.90;;;28.70;;
52184;SDS011;38160;52.876;18.778;2023-03-03T04:41:47;69.20;;;28.80;;
52184;SDS011;38160;52.876;18.778;2023-03-03T04:44:24;69.10;;;28.10;;
52184;SDS011;38160;52.876;18.778;2023-03-03T04:47:00;75.00;;;30.20;;
52184;SDS011;38160;52.876;18.778;2023-03-03T04:49:37;70.90;;;30.30;;
52184;SDS011;38160;52.876;18.778;2023-03-03T04:52:13;79.50;;;31.10;;
52184;SDS011;38160;52.876;18.778;2023-03-03T04:54:49;69.10;;;30.70;;
52184;SDS011;38160;52.876;18.778;2023-03-03T04:57:26;63.70;;;30.50;;
52184;SDS011;38160;52.876;18.778;2023-03-03T05:00:04;69.10;;;31.10;;
52184;SDS011;38160;52.876;18.778;2023-03-03T05:02:41;62.80;;;29.80;;
52184;SDS011;38160;52.876;18.778;2023-03-03T05:05:19;65.50;;;27.90;;
52184;SDS011;38160;52.876;18.778;2023-03-03T05:07:55;49.30;;;25.60;;
52184;SDS011;38160;52.876;18.778;2023-03-03T05:10:31;59.00;;;27.40;;
52184;SDS011;38160;52.876;18.778;2023-03-03T05:13:07;65.70;;;29.60;;
52184;SDS011;38160;52.876;18.778;2023-03-03T05:15:43;76.90;;;31.80;;
52184;SDS011;38160;52.876;18.778;2023-03-03T05:18:25;74.80;;;30.70;;
52184;SDS011;38160;52.876;18.778;2023-03-03T05:21:01;55.30;;;26.90;;
52184;SDS011;38160;52.876;18.778;2023-03-03T05:23:37;60.80;;;27.40;;
52184;SDS011;38160;52.876;18.778;2023-03-03T05:26:13;60.70;;;27.10;;
52184;SDS011;38160;52.876;18.778;2023-03-03T05:28:50;62.70;;;28.60;;
52184;SDS011;38160;52.876;18.778;2023-03-03T05:31:26;66.70;;;28.10;;
52184;SDS011;38160;52.876;18.778;2023-03-03T05:34:02;66.90;;;29.00;;
52184;SDS011;38160;52.876;18.778;2023-03-03T05:36:38;64.70;;;28.00;;
52184;SDS011;38160;52.876;18.778;2023-03-03T05:39:14;55.10;;;26.20;;
52184;SDS011;38160;52.876;18.778;2023-03-03T05:41:50;56.80;;;25.10;;
52184;SDS011;38160;52.876;18.778;2023-03-03T05:44:27;62.50;;;26.10;;
52184;SDS011;38160;52.876;18.778;2023-03-03T05:47:05;59.60;;;26.20;;
52184;SDS011;38160;52.876;18.778;2023-03-03T05:49:41;50.20;;;25.90;;
52184;SDS011;38160;52.876;18.778;2023-03-03T05:52:17;49.70;;;25.30;;
52184;SDS011;38160;52.876;18.778;2023-03-03T05:54:53;59.30;;;27.60;;
52184;SDS011;38160;52.876;18.778;2023-03-03T05:57:30;57.70;;;25.50;;
52184;SDS011;38160;52.876;18.778;2023-03-03T06:00:08;59.90;;;27.70;;
52184;SDS011;38160;52.876;18.778;2023-03-03T06:02:45;59.70;;;26.20;;
52184;SDS011;38160;52.876;18.778;2023-03-03T06:05:22;60.70;;;27.40;;
52184;SDS011;38160;52.876;18.778;2023-03-03T06:07:58;63.70;;;26.30;;
52184;SDS011;38160;52.876;18.778;2023-03-03T06:10:34;56.50;;;26.80;;
52184;SDS011;38160;52.876;18.778;2023-03-03T06:13:13;61.20;;;26.80;;
52184;SDS011;38160;52.876;18.778;2023-03-03T06:15:50;57.60;;;26.70;;
52184;SDS011;38160;52.876;18.778;2023-03-03T06:18:26;53.20;;;25.80;;
52184;SDS011;38160;52.876;18.778;2023-03-03T06:21:02;55.60;;;25.90;;
52184;SDS011;38160;52.876;18.778;2023-03-03T06:23:38;57.60;;;25.90;;
52184;SDS011;38160;52.876;18.778;2023-03-03T06:26:14;50.90;;;24.20;;
52184;SDS011;38160;52.876;18.778;2023-03-03T06:28:51;55.50;;;23.90;;
52184;SDS011;38160;52.876;18.778;2023-03-03T06:31:27;53.10;;;23.70;;
52184;SDS011;38160;52.876;18.778;2023-03-03T06:34:03;54.00;;;24.90;;
52184;SDS011;38160;52.876;18.778;2023-03-03T06:36:48;54.30;;;23.80;;
52184;SDS011;38160;52.876;18.778;2023-03-03T06:39:25;61.00;;;24.10;;
52184;SDS011;38160;52.876;18.778;2023-03-03T06:42:30;52.80;;;25.30;;
52184;SDS011;38160;52.876;18.778;2023-03-03T06:45:07;52.30;;;24.20;;
52184;SDS011;38160;52.876;18.778;2023-03-03T06:47:53;53.20;;;22.60;;
52184;SDS011;38160;52.876;18.778;2023-03-03T06:50:30;48.60;;;22.90;;
52184;SDS011;38160;52.876;18.778;2023-03-03T06:53:11;52.00;;;24.20;;
52184;SDS011;38160;52.876;18.778;2023-03-03T06:55:48;51.70;;;24.10;;
52184;SDS011;38160;52.876;18.778;2023-03-03T06:58:27;62.70;;;26.20;;
52184;SDS011;38160;52.876;18.778;2023-03-03T07:01:09;60.20;;;25.90;;
52184;SDS011;38160;52.876;18.778;2023-03-03T07:03:49;52.20;;;23.70;;
52184;SDS011;38160;52.876;18.778;2023-03-03T07:06:26;53.30;;;23.90;;
52184;SDS011;38160;52.876;18.778;2023-03-03T07:09:04;51.30;;;25.00;;
52184;SDS011;38160;52.876;18.778;2023-03-03T07:11:48;48.50;;;22.20;;
52184;SDS011;38160;52.876;18.778;2023-03-03T07:14:24;44.20;;;21.60;;
52184;SDS011;38160;52.876;18.778;2023-03-03T07:17:00;44.30;;;21.10;;
52184;SDS011;38160;52.876;18.778;2023-03-03T07:19:45;39.90;;;19.90;;
52184;SDS011;38160;52.876;18.778;2023-03-03T07:22:23;42.70;;;21.20;;
52184;SDS011;38160;52.876;18.778;2023-03-03T07:25:05;37.20;;;19.30;;
52184;SDS011;38160;52.876;18.778;2023-03-03T07:27:58;39.10;;;21.00;;
52184;SDS011;38160;52.876;18.778;2023-03-03T07:31:28;37.50;;;20.00;;
52184;SDS011;38160;52.876;18.778;2023-03-03T07:34:15;37.10;;;20.00;;
52184;SDS011;38160;52.876;18.778;2023-03-03T07:36:57;38.20;;;19.70;;
52184;SDS011;38160;52.876;18.778;2023-03-03T07:39:37;34.10;;;18.30;;
52184;SDS011;38160;52.876;18.778;2023-03-03T07:42:19;31.90;;;16.90;;
52184;SDS011;38160;52.876;18.778;2023-03-03T07:45:24;30.90;;;17.50;;
52184;SDS011;38160;52.876;18.778;2023-03-03T07:48:04;30.00;;;17.40;;
52184;SDS011;38160;52.876;18.778;2023-03-03T07:50:49;32.70;;;18.70;;
52184;SDS011;38160;52.876;18.778;2023-03-03T07:53:29;30.50;;;15.60;;
52184;SDS011;38160;52.876;18.778;2023-03-03T07:56:15;31.40;;;18.90;;
52184;SDS011;38160;52.876;18.778;2023-03-03T07:58:55;33.30;;;18.90;;
52184;SDS011;38160;52.876;18.778;2023-03-03T08:01:39;33.80;;;17.20;;
52184;SDS011;38160;52.876;18.778;2023-03-03T08:04:37;30.60;;;17.00;;
52184;SDS011;38160;52.876;18.778;2023-03-03T08:07:15;36.60;;;19.90;;
52184;SDS011;38160;52.876;18.778;2023-03-03T08:09:55;33.90;;;19.10;;
52184;SDS011;38160;52.876;18.778;2023-03-03T08:12:35;34.10;;;19.80;;
52184;SDS011;38160;52.876;18.778;2023-03-03T08:15:19;31.80;;;18.80;;
52184;SDS011;38160;52.876;18.778;2023-03-03T08:17:57;32.10;;;18.40;;
52184;SDS011;38160;52.876;18.778;2023-03-03T08:20:41;33.70;;;19.00;;
52184;SDS011;38160;52.876;18.778;2023-03-03T08:23:19;38.90;;;21.70;;
52184;SDS011;38160;52.876;18.778;2023-03-03T08:25:55;37.00;;;21.80;;
52184;SDS011;38160;52.876;18.778;2023-03-03T08:28:31;42.50;;;22.50;;
52184;SDS011;38160;52.876;18.778;2023-03-03T08:31:07;36.60;;;20.40;;
52184;SDS011;38160;52.876;18.778;2023-03-03T08:33:44;34.90;;;19.20;;
52184;SDS011;38160;52.876;18.778;2023-03-03T08:36:20;34.70;;;20.00;;
52184;SDS011;38160;52.876;18.778;2023-03-03T08:38:56;37.40;;;19.90;;
52184;SDS011;38160;52.876;18.778;2023-03-03T08:41:32;34.40;;;19.80;;
52184;SDS011;38160;52.876;18.778;2023-03-03T08:44:09;34.80;;;19.80;;
52184;SDS011;38160;52.876;18.778;2023-03-03T08:46:45;40.90;;;22.80;;
52184;SDS011;38160;52.876;18.778;2023-03-03T08:49:21;41.50;;;24.90;;
52184;SDS011;38160;52.876;18.778;2023-03-03T08:51:57;39.00;;;22.40;;
52184;SDS011;38160;52.876;18.778;2023-03-03T08:54:33;35.10;;;21.90;;
52184;SDS011;38160;52.876;18.778;2023-03-03T08:57:09;39.90;;;22.30;;
52184;SDS011;38160;52.876;18.778;2023-03-03T08:59:45;40.60;;;23.40;;
52184;SDS011;38160;52.876;18.778;2023-03-03T09:02:21;41.70;;;23.00;;
52184;SDS011;38160;52.876;18.778;2023-03-03T09:04:57;32.40;;;19.20;;
52184;SDS011;38160;52.876;18.778;2023-03-03T09:07:33;36.20;;;20.30;;
52184;SDS011;38160;52.876;18.778;2023-03-03T09:10:10;36.90;;;21.60;;
52184;SDS011;38160;52.876;18.778;2023-03-03T09:12:48;34.90;;;21.00;;
52184;SDS011;38160;52.876;18.778;2023-03-03T09:15:24;38.30;;;20.00;;
52184;SDS011;38160;52.876;18.778;2023-03-03T09:18:08;32.40;;;18.80;;
52184;SDS011;38160;52.876;18.778;2023-03-03T09:20:48;33.80;;;19.40;;
52184;SDS011;38160;52.876;18.778;2023-03-03T09:23:33;32.00;;;19.60;;
52184;SDS011;38160;52.876;18.778;2023-03-03T09:26:17;33.10;;;20.50;;
52184;SDS011;38160;52.876;18.778;2023-03-03T09:29:04;36.20;;;21.50;;
52184;SDS011;38160;52.876;18.778;2023-03-03T09:31:51;40.10;;;20.60;;
52184;SDS011;38160;52.876;18.778;2023-03-03T09:34:35;38.50;;;22.40;;
52184;SDS011;38160;52.876;18.778;2023-03-03T09:37:19;40.40;;;21.80;;
52184;SDS011;38160;52.876;18.778;2023-03-03T09:39:57;36.80;;;22.80;;
52184;SDS011;38160;52.876;18.778;2023-03-03T09:42:46;38.80;;;22.00;;
52184;SDS011;38160;52.876;18.778;2023-03-03T09:45:32;40.50;;;23.00;;
52184;SDS011;38160;52.876;18.778;2023-03-03T09:51:37;42.90;;;22.90;;
52184;SDS011;38160;52.876;18.778;2023-03-03T09:54:31;40.90;;;24.00;;
52184;SDS011;38160;52.876;18.778;2023-03-03T09:57:21;38.20;;;23.10;;
52184;SDS011;38160;52.876;18.778;2023-03-03T10:02:54;46.20;;;26.10;;
52184;SDS011;38160;52.876;18.778;2023-03-03T10:05:50;48.80;;;27.10;;
52184;SDS011;38160;52.876;18.778;2023-03-03T10:08:39;151.00;;;58.80;;
52184;SDS011;38160;52.876;18.778;2023-03-03T10:11:27;45.10;;;27.50;;
52184;SDS011;38160;52.876;18.778;2023-03-03T10:14:17;49.50;;;28.60;;
52184;SDS011;38160;52.876;18.778;2023-03-03T10:17:05;51.40;;;30.40;;
52184;SDS011;38160;52.876;18.778;2023-03-03T10:19:51;53.30;;;29.50;;
52184;SDS011;38160;52.876;18.778;2023-03-03T10:22:41;51.60;;;29.10;;
52184;SDS011;38160;52.876;18.778;2023-03-03T10:25:31;55.70;;;28.60;;
52184;SDS011;38160;52.876;18.778;2023-03-03T10:28:22;40.80;;;24.90;;
52184;SDS011;38160;52.876;18.778;2023-03-03T10:31:15;47.20;;;27.40;;
52184;SDS011;38160;52.876;18.778;2023-03-03T10:34:03;43.40;;;26.40;;
52184;SDS011;38160;52.876;18.778;2023-03-03T10:36:54;47.40;;;29.50;;
52184;SDS011;38160;52.876;18.778;2023-03-03T10:39:41;44.70;;;27.40;;
52184;SDS011;38160;52.876;18.778;2023-03-03T10:42:43;46.80;;;27.20;;
52184;SDS011;38160;52.876;18.778;2023-03-03T10:45:48;43.80;;;25.90;;
52184;SDS011;38160;52.876;18.778;2023-03-03T10:48:39;43.40;;;24.80;;
52184;SDS011;38160;52.876;18.778;2023-03-03T10:51:30;46.10;;;26.50;;
52184;SDS011;38160;52.876;18.778;2023-03-03T10:54:17;50.30;;;27.20;;
52184;SDS011;38160;52.876;18.778;2023-03-03T10:57:03;44.70;;;26.10;;
52184;SDS011;38160;52.876;18.778;2023-03-03T10:59:51;45.40;;;26.40;;
52184;SDS011;38160;52.876;18.778;2023-03-03T11:02:37;42.90;;;26.70;;
52184;SDS011;38160;52.876;18.778;2023-03-03T11:05:29;47.10;;;27.80;;
52184;SDS011;38160;52.876;18.778;2023-03-03T11:08:14;56.80;;;32.00;;
52184;SDS011;38160;52.876;18.778;2023-03-03T11:10:57;51.00;;;31.10;;
52184;SDS011;38160;52.876;18.778;2023-03-03T11:13:40;48.60;;;27.60;;
52184;SDS011;38160;52.876;18.778;2023-03-03T11:16:27;44.10;;;25.40;;
52184;SDS011;38160;52.876;18.778;2023-03-03T11:19:15;42.60;;;24.80;;
52184;SDS011;38160;52.876;18.778;2023-03-03T11:22:24;49.40;;;24.20;;
52184;SDS011;38160;52.876;18.778;2023-03-03T11:25:18;45.10;;;24.80;;
52184;SDS011;38160;52.876;18.778;2023-03-03T11:28:08;43.20;;;26.50;;
52184;SDS011;38160;52.876;18.778;2023-03-03T11:30:56;48.00;;;26.30;;
52184;SDS011;38160;52.876;18.778;2023-03-03T11:33:43;50.70;;;25.60;;
52184;SDS011;38160;52.876;18.778;2023-03-03T11:36:27;40.30;;;23.40;;
52184;SDS011;38160;52.876;18.778;2023-03-03T11:39:08;39.00;;;23.10;;
52184;SDS011;38160;52.876;18.778;2023-03-03T11:41:49;37.10;;;22.40;;
52184;SDS011;38160;52.876;18.778;2023-03-03T11:44:40;36.60;;;22.10;;
52184;SDS011;38160;52.876;18.778;2023-03-03T11:47:21;39.00;;;22.50;;
52184;SDS011;38160;52.876;18.778;2023-03-03T11:50:02;37.40;;;22.70;;
52184;SDS011;38160;52.876;18.778;2023-03-03T11:52:42;41.20;;;23.20;;
52184;SDS011;38160;52.876;18.778;2023-03-03T11:55:26;36.00;;;21.00;;
52184;SDS011;38160;52.876;18.778;2023-03-03T11:58:07;31.90;;;19.30;;
52184;SDS011;38160;52.876;18.778;2023-03-03T12:00:48;33.00;;;19.40;;
52184;SDS011;38160;52.876;18.778;2023-03-03T12:03:31;32.70;;;18.90;;
52184;SDS011;38160;52.876;18.778;2023-03-03T12:06:15;29.60;;;18.10;;
52184;SDS011;38160;52.876;18.778;2023-03-03T12:12:06;27.80;;;18.10;;
52184;SDS011;38160;52.876;18.778;2023-03-03T12:14:52;30.70;;;18.00;;
52184;SDS011;38160;52.876;18.778;2023-03-03T12:17:46;27.50;;;15.90;;
52184;SDS011;38160;52.876;18.778;2023-03-03T12:20:37;30.80;;;18.00;;
52184;SDS011;38160;52.876;18.778;2023-03-03T12:23:33;29.40;;;17.80;;
52184;SDS011;38160;52.876;18.778;2023-03-03T12:26:24;27.00;;;16.20;;
52184;SDS011;38160;52.876;18.778;2023-03-03T12:29:06;27.80;;;17.50;;
52184;SDS011;38160;52.876;18.778;2023-03-03T12:31:54;27.40;;;17.10;;
52184;SDS011;38160;52.876;18.778;2023-03-03T12:34:39;27.20;;;17.20;;
52184;SDS011;38160;52.876;18.778;2023-03-03T12:37:24;26.30;;;15.60;;
52184;SDS011;38160;52.876;18.778;2023-03-03T12:40:18;26.60;;;15.20;;
52184;SDS011;38160;52.876;18.778;2023-03-03T12:43:04;28.30;;;16.30;;
52184;SDS011;38160;52.876;18.778;2023-03-03T12:45:53;28.00;;;16.20;;
52184;SDS011;38160;52.876;18.778;2023-03-03T12:48:39;25.00;;;15.00;;
52184;SDS011;38160;52.876;18.778;2023-03-03T12:51:19;28.60;;;16.80;;
52184;SDS011;38160;52.876;18.778;2023-03-03T12:54:09;25.70;;;15.90;;
52184;SDS011;38160;52.876;18.778;2023-03-03T12:56:59;25.70;;;15.90;;
52184;SDS011;38160;52.876;18.778;2023-03-03T12:59:48;24.90;;;15.50;;
52184;SDS011;38160;52.876;18.778;2023-03-03T13:02:42;22.10;;;14.70;;
52184;SDS011;38160;52.876;18.778;2023-03-03T13:05:30;22.50;;;14.30;;
52184;SDS011;38160;52.876;18.778;2023-03-03T13:11:09;25.30;;;14.40;;
52184;SDS011;38160;52.876;18.778;2023-03-03T13:13:58;26.40;;;15.70;;
52184;SDS011;38160;52.876;18.778;2023-03-03T13:16:45;23.90;;;14.40;;
52184;SDS011;38160;52.876;18.778;2023-03-03T13:19:28;22.80;;;14.00;;
52184;SDS011;38160;52.876;18.778;2023-03-03T13:22:13;24.10;;;14.80;;
52184;SDS011;38160;52.876;18.778;2023-03-03T13:24:57;25.20;;;14.60;;
52184;SDS011;38160;52.876;18.778;2023-03-03T13:27:41;21.40;;;13.70;;
52184;SDS011;38160;52.876;18.778;2023-03-03T13:30:22;24.30;;;14.90;;
52184;SDS011;38160;52.876;18.778;2023-03-03T13:33:02;23.50;;;14.80;;
52184;SDS011;38160;52.876;18.778;2023-03-03T13:35:45;24.00;;;14.30;;
52184;SDS011;38160;52.876;18.778;2023-03-03T13:38:27;23.20;;;14.60;;
52184;SDS011;38160;52.876;18.778;2023-03-03T13:41:08;21.90;;;14.10;;
52184;SDS011;38160;52.876;18.778;2023-03-03T13:43:51;26.90;;;16.30;;
52184;SDS011;38160;52.876;18.778;2023-03-03T13:46:35;28.40;;;16.20;;
52184;SDS011;38160;52.876;18.778;2023-03-03T13:49:23;25.10;;;15.70;;
52184;SDS011;38160;52.876;18.778;2023-03-03T13:52:11;25.60;;;15.30;;
52184;SDS011;38160;52.876;18.778;2023-03-03T13:55:06;22.50;;;14.70;;
52184;SDS011;38160;52.876;18.778;2023-03-03T13:57:53;22.10;;;14.50;;
52184;SDS011;38160;52.876;18.778;2023-03-03T14:00:46;23.30;;;14.70;;
52184;SDS011;38160;52.876;18.778;2023-03-03T14:03:31;21.70;;;13.90;;
52184;SDS011;38160;52.876;18.778;2023-03-03T14:06:24;23.40;;;14.10;;
52184;SDS011;38160;52.876;18.778;2023-03-03T14:09:10;21.90;;;13.00;;
52184;SDS011;38160;52.876;18.778;2023-03-03T14:11:58;16.30;;;10.80;;
52184;SDS011;38160;52.876;18.778;2023-03-03T14:14:46;22.60;;;13.30;;
52184;SDS011;38160;52.876;18.778;2023-03-03T14:17:30;19.70;;;13.00;;
52184;SDS011;38160;52.876;18.778;2023-03-03T14:20:25;20.90;;;13.70;;
52184;SDS011;38160;52.876;18.778;2023-03-03T14:23:20;25.00;;;14.90;;
52184;SDS011;38160;52.876;18.778;2023-03-03T14:26:06;25.40;;;16.10;;
52184;SDS011;38160;52.876;18.778;2023-03-03T14:28:45;28.70;;;18.10;;
52184;SDS011;38160;52.876;18.778;2023-03-03T14:31:24;30.00;;;17.20;;
52184;SDS011;38160;52.876;18.778;2023-03-03T14:34:11;28.30;;;16.70;;
52184;SDS011;38160;52.876;18.778;2023-03-03T14:37:19;26.20;;;16.30;;
52184;SDS011;38160;52.876;18.778;2023-03-03T14:40:09;27.20;;;16.90;;
52184;SDS011;38160;52.876;18.778;2023-03-03T14:42:54;26.40;;;17.70;;
52184;SDS011;38160;52.876;18.778;2023-03-03T14:45:33;27.30;;;17.50;;
52184;SDS011;38160;52.876;18.778;2023-03-03T14:48:14;30.70;;;17.00;;
52184;SDS011;38160;52.876;18.778;2023-03-03T14:50:55;24.40;;;16.40;;
52184;SDS011;38160;52.876;18.778;2023-03-03T14:53:37;28.20;;;17.50;;
52184;SDS011;38160;52.876;18.778;2023-03-03T14:56:24;27.50;;;16.90;;
52184;SDS011;38160;52.876;18.778;2023-03-03T14:59:16;27.00;;;18.30;;
52184;SDS011;38160;52.876;18.778;2023-03-03T15:02:02;30.30;;;17.60;;
52184;SDS011;38160;52.876;18.778;2023-03-03T15:05:18;28.50;;;17.80;;
52184;SDS011;38160;52.876;18.778;2023-03-03T15:11:59;27.50;;;16.60;;
52184;SDS011;38160;52.876;18.778;2023-03-03T15:14:41;28.70;;;17.50;;
52184;SDS011;38160;52.876;18.778;2023-03-03T15:17:24;25.60;;;16.60;;
52184;SDS011;38160;52.876;18.778;2023-03-03T15:20:12;28.00;;;17.20;;
52184;SDS011;38160;52.876;18.778;2023-03-03T15:23:00;26.60;;;17.40;;
52184;SDS011;38160;52.876;18.778;2023-03-03T15:25:52;28.30;;;18.10;;
52184;SDS011;38160;52.876;18.778;2023-03-03T15:28:34;27.30;;;16.10;;
52184;SDS011;38160;52.876;18.778;2023-03-03T15:31:21;30.50;;;17.90;;
52184;SDS011;38160;52.876;18.778;2023-03-03T15:34:25;30.30;;;17.90;;
52184;SDS011;38160;52.876;18.778;2023-03-03T15:40:08;28.60;;;17.80;;
52184;SDS011;38160;52.876;18.778;2023-03-03T15:42:54;29.10;;;18.00;;
52184;SDS011;38160;52.876;18.778;2023-03-03T15:45:40;29.90;;;19.20;;
52184;SDS011;38160;52.876;18.778;2023-03-03T15:51:09;33.10;;;18.80;;
52184;SDS011;38160;52.876;18.778;2023-03-03T15:54:00;28.80;;;19.00;;
52184;SDS011;38160;52.876;18.778;2023-03-03T15:56:49;30.40;;;18.10;;
52184;SDS011;38160;52.876;18.778;2023-03-03T15:59:41;31.00;;;19.00;;
52184;SDS011;38160;52.876;18.778;2023-03-03T16:02:48;34.10;;;19.30;;
52184;SDS011;38160;52.876;18.778;2023-03-03T16:05:29;32.90;;;19.10;;